Time;durP1;ratioP1;P1;durP2;ratioP2;P2;SDS_P1;SDS_P2;PMS_P1;PMS_P2;Temp;Humidity;BMP_temperature;BMP_pressure;BME280_temperature;BME280_humidity;BME280_pressure;Samples;Min_cycle;Max_cycle;Signal;HPM_P1;HPM_P2
2023/08/31 11:29:22;;;;;;;1.40;0.60;;;21.90;99.90;;;;;;4955576;23;20378;-73
2023/08/31 11:31:49;;;;;;;3.45;0.82;;;21.90;99.90;;;;;;4983430;28;20242;-71
2023/08/31 11:34:17;;;;;;;1.88;0.80;;;21.70;99.90;;;;;;4979397;28;20211;-74
2023/08/31 11:36:45;;;;;;;3.25;0.88;;;21.40;99.90;;;;;;4939268;28;20327;-76
2023/08/31 11:39:13;;;;;;;1.95;0.88;;;21.30;99.90;;;;;;4921860;29;20217;-68
2023/08/31 11:41:41;;;;;;;1.70;0.70;;;21.20;99.90;;;;;;4917100;29;20210;-68
2023/08/31 11:44:09;;;;;;;2.22;0.65;;;21.10;99.90;;;;;;4917320;29;20213;-70
2023/08/31 11:46:38;;;;;;;1.27;0.70;;;21.10;99.90;;;;;;4934022;29;20232;-68
2023/08/31 11:49:06;;;;;;;2.33;0.60;;;21.30;99.90;;;;;;4943389;29;20241;-71
2023/08/31 11:51:33;;;;;;;3.53;0.88;;;21.30;99.90;;;;;;4954278;29;20240;-68
2023/08/31 11:54:03;;;;;;;0.82;0.60;;;21.40;99.90;;;;;;4955155;29;20250;-69
2023/08/31 11:56:39;;;;;;;2.40;0.50;;;21.40;99.90;;;;;;4944678;28;20399;-72
2023/08/31 11:59:09;;;;;;;2.47;0.60;;;21.30;99.90;;;;;;4936354;28;20227;-72
2023/08/31 12:01:41;;;;;;;2.78;1.02;;;21.20;99.90;;;;;;4936711;29;20209;-70
2023/08/31 12:04:14;;;;;;;1.27;0.70;;;21.40;99.90;;;;;;4935540;29;20213;-70
2023/08/31 12:06:43;;;;;;;2.15;0.70;;;21.60;99.90;;;;;;4935557;29;20233;-69
2023/08/31 12:09:10;;;;;;;1.60;0.85;;;21.70;99.90;;;;;;4936064;29;20295;-68
2023/08/31 12:11:38;;;;;;;1.10;0.55;;;21.50;99.90;;;;;;4936598;29;20223;-75
2023/08/31 12:14:19;;;;;;;2.05;0.73;;;21.50;99.90;;;;;;4937008;29;20216;-68
2023/08/31 12:16:47;;;;;;;3.63;1.17;;;21.50;99.90;;;;;;4936678;29;20296;-68
2023/08/31 12:19:14;;;;;;;4.10;0.93;;;21.00;99.90;;;;;;4936663;29;20244;-68
2023/08/31 12:21:43;;;;;;;2.03;0.80;;;21.00;99.90;;;;;;4936592;29;20731;-68
2023/08/31 12:24:10;;;;;;;3.08;1.00;;;20.90;99.90;;;;;;4936744;29;20627;-69
2023/08/31 12:26:37;;;;;;;0.80;0.63;;;21.00;99.90;;;;;;4937040;29;20267;-68
2023/08/31 12:29:04;;;;;;;2.00;0.60;;;20.80;99.90;;;;;;4936697;29;20272;-68
2023/08/31 12:31:31;;;;;;;1.10;0.60;;;20.60;99.90;;;;;;4936865;29;20292;-68
2023/08/31 12:34:04;;;;;;;1.38;0.60;;;20.60;99.90;;;;;;4936909;29;20282;-68
2023/08/31 12:36:31;;;;;;;2.65;1.15;;;20.70;99.90;;;;;;4936582;29;20244;-68
2023/08/31 12:39:01;;;;;;;2.25;0.90;;;21.00;99.90;;;;;;4936670;29;20244;-67
2023/08/31 12:41:28;;;;;;;4.63;1.08;;;21.10;99.90;;;;;;4936396;29;20223;-68
2023/08/31 12:43:55;;;;;;;2.55;0.50;;;21.20;99.90;;;;;;4936312;29;20244;-68
2023/08/31 12:46:21;;;;;;;3.65;0.80;;;21.30;99.90;;;;;;4936406;29;20260;-68
2023/08/31 12:48:49;;;;;;;3.05;1.02;;;21.10;99.90;;;;;;4936619;29;20244;-68
2023/08/31 12:51:17;;;;;;;2.83;0.80;;;21.20;99.90;;;;;;4936506;29;20292;-68
2023/08/31 12:53:44;;;;;;;1.95;0.65;;;21.20;99.90;;;;;;4936647;29;20244;-68
2023/08/31 12:56:11;;;;;;;1.90;0.70;;;21.10;99.90;;;;;;4936172;29;20754;-73
2023/08/31 12:58:39;;;;;;;1.73;0.40;;;21.10;99.90;;;;;;4935768;29;20244;-70
2023/08/31 13:01:06;;;;;;;3.45;0.95;;;21.40;99.90;;;;;;4936116;29;20248;-68
2023/08/31 13:03:33;;;;;;;2.65;0.77;;;21.20;99.90;;;;;;4936223;29;20608;-68
2023/08/31 13:05:59;;;;;;;2.55;0.70;;;21.20;99.90;;;;;;4935952;29;20264;-68
2023/08/31 13:08:28;;;;;;;1.67;0.60;;;21.40;99.90;;;;;;4936396;29;20248;-70
2023/08/31 13:10:55;;;;;;;1.38;0.60;;;21.40;99.90;;;;;;4936393;29;20219;-68
2023/08/31 13:13:22;;;;;;;2.20;0.70;;;21.50;99.90;;;;;;4936436;29;20236;-68
2023/08/31 13:15:50;;;;;;;1.77;0.60;;;21.60;99.90;;;;;;4936049;29;20320;-68
2023/08/31 13:18:17;;;;;;;1.15;0.50;;;21.60;99.90;;;;;;4935645;29;20323;-72
2023/08/31 13:20:50;;;;;;;1.63;0.80;;;21.60;99.90;;;;;;4936353;29;20330;-68
2023/08/31 13:23:17;;;;;;;0.95;0.50;;;21.50;99.90;;;;;;4936002;29;20273;-68
2023/08/31 13:25:46;;;;;;;1.55;0.50;;;21.60;99.90;;;;;;4935955;29;20306;-71
2023/08/31 13:28:13;;;;;;;2.95;0.77;;;21.40;99.90;;;;;;4935913;29;20679;-69
2023/08/31 13:30:42;;;;;;;2.25;0.90;;;21.50;99.90;;;;;;4935756;29;20227;-69
2023/08/31 13:33:09;;;;;;;2.60;1.25;;;21.60;99.90;;;;;;4936061;29;20623;-67
2023/08/31 13:35:36;;;;;;;4.78;0.70;;;21.60;99.90;;;;;;4935787;29;20264;-68
2023/08/31 13:38:04;;;;;;;0.90;0.60;;;21.60;99.90;;;;;;4935953;29;20386;-68
2023/08/31 13:40:31;;;;;;;1.17;0.60;;;21.40;99.90;;;;;;4935932;29;20240;-68
2023/08/31 13:43:02;;;;;;;1.85;0.70;;;21.50;99.90;;;;;;4935892;29;20240;-68
2023/08/31 13:45:30;;;;;;;2.45;0.90;;;21.60;99.90;;;;;;4935282;29;20699;-74
2023/08/31 13:47:59;;;;;;;2.85;0.90;;;21.40;99.90;;;;;;4935696;29;20664;-68
2023/08/31 13:50:26;;;;;;;3.20;0.90;;;21.40;99.90;;;;;;4935717;29;20300;-68
2023/08/31 13:52:53;;;;;;;2.92;0.73;;;21.60;99.90;;;;;;4935869;29;20291;-68
2023/08/31 13:55:20;;;;;;;3.00;0.85;;;21.70;99.90;;;;;;4935789;29;20239;-69
2023/08/31 13:57:47;;;;;;;1.13;0.85;;;21.50;99.90;;;;;;4935589;29;20290;-68
2023/08/31 14:00:16;;;;;;;2.08;0.63;;;21.60;99.90;;;;;;4935873;29;20552;-68
2023/08/31 14:02:44;;;;;;;1.85;0.77;;;21.50;99.90;;;;;;4935526;29;20304;-69
2023/08/31 14:05:11;;;;;;;4.30;1.20;;;21.50;99.90;;;;;;4935391;29;20242;-68
2023/08/31 14:07:38;;;;;;;2.72;0.70;;;21.50;99.90;;;;;;4935433;29;20236;-68
2023/08/31 14:10:06;;;;;;;2.20;0.90;;;21.50;99.90;;;;;;4936298;29;20240;-68
2023/08/31 14:12:33;;;;;;;3.47;0.90;;;21.60;99.90;;;;;;4939222;29;20240;-68
2023/08/31 14:15:03;;;;;;;1.42;0.65;;;21.60;99.90;;;;;;4957802;28;20259;-70
2023/08/31 14:17:31;;;;;;;1.58;0.60;;;21.50;99.90;;;;;;4942903;29;20236;-68
2023/08/31 14:20:00;;;;;;;5.00;0.98;;;21.50;99.90;;;;;;4940112;29;20236;-70
2023/08/31 14:22:28;;;;;;;2.35;0.93;;;21.50;99.90;;;;;;4940575;29;20205;-69
2023/08/31 14:24:55;;;;;;;1.60;0.70;;;21.40;99.90;;;;;;4938047;29;20228;-68
2023/08/31 14:27:22;;;;;;;1.17;0.70;;;21.40;99.90;;;;;;4938313;29;20216;-71
2023/08/31 14:29:49;;;;;;;2.15;0.90;;;21.30;99.90;;;;;;4938166;29;20704;-72
2023/08/31 14:32:16;;;;;;;5.65;1.05;;;21.30;99.90;;;;;;4938387;29;20262;-71
2023/08/31 14:34:44;;;;;;;2.63;0.82;;;21.20;99.90;;;;;;4940034;29;20228;-69
2023/08/31 14:37:11;;;;;;;3.75;0.90;;;21.10;99.90;;;;;;4937058;29;20272;-68
2023/08/31 14:39:38;;;;;;;3.92;1.10;;;21.10;99.90;;;;;;4937868;29;20564;-69
2023/08/31 14:42:05;;;;;;;4.20;0.77;;;21.10;99.90;;;;;;4935417;29;20314;-71
2023/08/31 14:44:32;;;;;;;1.95;0.82;;;21.20;99.90;;;;;;4937339;29;20241;-69
2023/08/31 14:46:59;;;;;;;3.10;0.80;;;21.20;99.90;;;;;;4937869;29;20268;-69
2023/08/31 14:49:26;;;;;;;3.05;0.90;;;21.20;99.90;;;;;;4937751;29;20233;-73
2023/08/31 14:51:55;;;;;;;2.45;1.05;;;21.20;99.90;;;;;;4937608;29;20232;-70
2023/08/31 14:54:23;;;;;;;2.15;0.88;;;21.20;99.90;;;;;;4938434;29;20251;-69
2023/08/31 14:56:50;;;;;;;3.63;0.80;;;21.30;99.90;;;;;;4938196;29;20276;-68
2023/08/31 14:59:17;;;;;;;3.70;1.00;;;21.10;99.90;;;;;;4936934;29;20287;-71
2023/08/31 15:01:45;;;;;;;2.53;0.90;;;21.00;99.90;;;;;;4938422;29;20220;-68
2023/08/31 15:04:12;;;;;;;3.17;1.10;;;21.00;99.90;;;;;;4938150;29;20568;-72
2023/08/31 15:06:39;;;;;;;3.58;0.70;;;21.00;99.90;;;;;;4937972;29;20267;-68
2023/08/31 15:09:07;;;;;;;3.63;1.05;;;20.60;99.90;;;;;;4938563;29;20244;-70
2023/08/31 15:11:34;;;;;;;6.18;1.15;;;20.60;99.90;;;;;;4938225;29;20248;-70
2023/08/31 15:14:01;;;;;;;3.60;0.95;;;20.70;99.90;;;;;;4937693;29;20242;-70
2023/08/31 15:16:28;;;;;;;3.90;1.02;;;20.80;99.90;;;;;;4937816;29;20573;-69
2023/08/31 15:18:55;;;;;;;1.20;0.80;;;20.70;99.90;;;;;;4938252;29;20671;-71
2023/08/31 15:21:22;;;;;;;1.42;0.95;;;20.80;99.90;;;;;;4937828;29;20213;-70
2023/08/31 15:23:49;;;;;;;2.97;1.10;;;20.90;99.90;;;;;;4938173;29;20244;-70
2023/08/31 15:26:17;;;;;;;2.75;1.00;;;21.00;99.90;;;;;;4937927;29;20225;-71
2023/08/31 15:28:44;;;;;;;3.67;1.00;;;20.90;99.90;;;;;;4938041;29;20217;-69
2023/08/31 15:31:13;;;;;;;2.40;0.73;;;21.00;99.90;;;;;;4937892;29;20634;-71
2023/08/31 15:33:40;;;;;;;3.55;0.80;;;20.90;99.90;;;;;;4937911;29;20695;-70
2023/08/31 15:36:08;;;;;;;2.53;1.30;;;20.70;99.90;;;;;;4937764;29;20696;-69
2023/08/31 15:38:36;;;;;;;2.15;0.60;;;20.50;99.90;;;;;;4937587;29;20373;-70
2023/08/31 15:41:05;;;;;;;2.58;0.68;;;20.40;99.90;;;;;;4937891;29;20252;-68
2023/08/31 15:43:35;;;;;;;2.10;0.70;;;20.30;99.90;;;;;;4937795;29;20240;-67
2023/08/31 15:46:04;;;;;;;2.92;0.98;;;20.40;99.90;;;;;;4937135;29;20260;-67
2023/08/31 15:48:31;;;;;;;2.15;0.80;;;20.30;99.90;;;;;;4936576;29;20244;-67
2023/08/31 15:50:59;;;;;;;3.63;0.70;;;20.20;99.90;;;;;;4937759;29;20251;-68
2023/08/31 15:53:28;;;;;;;7.18;1.20;;;20.20;99.90;;;;;;4937478;29;20256;-68
2023/08/31 15:55:55;;;;;;;4.30;0.90;;;20.10;99.90;;;;;;4937638;29;20229;-70
2023/08/31 15:58:22;;;;;;;2.25;0.88;;;20.20;99.90;;;;;;4937065;29;20338;-69
2023/08/31 16:00:50;;;;;;;2.72;0.98;;;20.20;99.90;;;;;;4936990;29;20279;-67
2023/08/31 16:03:17;;;;;;;2.75;0.70;;;20.20;99.90;;;;;;4937502;29;20251;-68
2023/08/31 16:05:44;;;;;;;2.30;0.95;;;20.20;99.90;;;;;;4937245;29;20264;-70
2023/08/31 16:08:12;;;;;;;2.63;0.80;;;20.10;99.90;;;;;;4937177;29;20244;-69
2023/08/31 16:10:39;;;;;;;5.25;1.35;;;20.00;99.90;;;;;;4937168;29;20267;-68
2023/08/31 16:13:06;;;;;;;4.60;1.20;;;19.80;99.90;;;;;;4937152;29;20663;-71
2023/08/31 16:15:33;;;;;;;4.03;0.90;;;19.80;99.90;;;;;;4936847;29;20659;-68
2023/08/31 16:18:02;;;;;;;3.15;0.77;;;19.80;99.90;;;;;;4937227;29;20268;-67
2023/08/31 16:20:29;;;;;;;5.25;1.02;;;19.80;99.90;;;;;;4937165;29;20209;-68
2023/08/31 16:22:56;;;;;;;5.63;0.93;;;19.70;99.90;;;;;;4936899;29;20563;-69
2023/08/31 16:25:23;;;;;;;4.97;0.85;;;19.60;99.90;;;;;;4936509;29;20264;-68
2023/08/31 16:27:50;;;;;;;2.80;1.10;;;19.60;99.90;;;;;;4936120;29;20240;-70
2023/08/31 16:30:17;;;;;;;4.55;1.05;;;19.60;99.90;;;;;;4936170;29;20580;-70
2023/08/31 16:32:44;;;;;;;3.40;0.80;;;19.60;99.90;;;;;;4935651;29;20620;-69
2023/08/31 16:35:14;;;;;;;4.82;1.08;;;19.50;99.90;;;;;;4935598;29;20326;-70
2023/08/31 16:37:42;;;;;;;1.98;0.80;;;19.30;99.90;;;;;;4935473;29;20576;-71
2023/08/31 16:40:11;;;;;;;2.38;0.90;;;19.20;99.90;;;;;;4935338;29;20636;-71
2023/08/31 16:42:39;;;;;;;4.30;1.00;;;19.00;99.90;;;;;;4935545;29;20204;-68
2023/08/31 16:45:07;;;;;;;4.55;0.90;;;18.80;99.90;;;;;;4932796;29;20221;-67
2023/08/31 16:47:34;;;;;;;5.75;0.90;;;18.90;99.90;;;;;;4935530;29;20243;-67
2023/08/31 16:50:03;;;;;;;3.72;0.80;;;18.80;99.90;;;;;;4931794;29;20253;-68
2023/08/31 16:52:31;;;;;;;2.60;0.90;;;18.80;99.90;;;;;;4935698;29;20201;-67
2023/08/31 16:54:59;;;;;;;3.78;0.95;;;18.80;99.90;;;;;;4935169;29;20256;-67
2023/08/31 16:57:26;;;;;;;3.70;1.27;;;18.70;99.90;;;;;;4934878;29;20200;-69
2023/08/31 16:59:53;;;;;;;3.47;1.50;;;18.60;99.90;;;;;;4934716;29;20207;-67
2023/08/31 17:02:20;;;;;;;3.40;0.90;;;18.50;99.90;;;;;;4935506;29;20203;-68
2023/08/31 17:04:47;;;;;;;3.83;1.05;;;18.40;99.90;;;;;;4934804;29;20236;-68
2023/08/31 17:07:14;;;;;;;4.32;1.15;;;18.30;99.90;;;;;;4935064;29;20232;-68
2023/08/31 17:09:42;;;;;;;3.80;1.40;;;18.20;99.90;;;;;;4934456;29;20248;-67
2023/08/31 17:12:09;;;;;;;1.90;0.80;;;18.00;99.90;;;;;;4934824;29;20239;-68
2023/08/31 17:14:36;;;;;;;3.13;1.13;;;17.90;99.90;;;;;;4935574;29;20254;-67
2023/08/31 17:17:04;;;;;;;2.70;0.80;;;17.90;99.90;;;;;;4935758;29;20266;-69
2023/08/31 17:19:31;;;;;;;3.30;1.10;;;17.80;99.90;;;;;;4935448;29;20240;-67
2023/08/31 17:21:58;;;;;;;1.20;0.73;;;17.80;99.90;;;;;;4935623;29;20648;-68
2023/08/31 17:24:25;;;;;;;2.72;1.50;;;17.70;99.90;;;;;;4935477;29;20243;-68
2023/08/31 17:26:53;;;;;;;3.58;1.13;;;17.70;99.90;;;;;;4934432;29;20256;-67
2023/08/31 17:29:20;;;;;;;3.60;1.40;;;17.60;99.90;;;;;;4935271;29;20259;-68
2023/08/31 17:31:47;;;;;;;3.42;1.30;;;17.60;99.90;;;;;;4935230;29;20288;-69
2023/08/31 17:34:15;;;;;;;3.67;1.45;;;17.40;99.90;;;;;;4935273;29;20211;-73
2023/08/31 17:36:43;;;;;;;2.53;1.08;;;17.50;99.90;;;;;;4951433;29;20316;-68
2023/08/31 17:39:12;;;;;;;2.38;1.13;;;17.50;99.90;;;;;;4954513;28;20241;-67
2023/08/31 17:41:39;;;;;;;2.87;1.30;;;17.50;99.90;;;;;;4954216;28;20208;-67
2023/08/31 17:44:07;;;;;;;3.95;1.17;;;17.50;99.90;;;;;;4954154;29;20671;-67
2023/08/31 17:46:34;;;;;;;2.90;0.90;;;17.30;99.90;;;;;;4953869;28;20741;-67
2023/08/31 17:49:01;;;;;;;1.73;1.20;;;17.40;99.90;;;;;;4954071;29;20208;-71
2023/08/31 17:51:28;;;;;;;3.70;1.50;;;17.50;99.90;;;;;;4954505;29;20267;-70
2023/08/31 17:53:58;;;;;;;3.08;1.38;;;17.40;99.90;;;;;;4954561;29;20722;-69
2023/08/31 17:56:25;;;;;;;4.18;1.50;;;17.40;99.90;;;;;;4954476;28;20228;-69
2023/08/31 17:58:52;;;;;;;2.45;1.27;;;17.30;99.90;;;;;;4954349;29;20639;-68
2023/08/31 18:01:21;;;;;;;7.03;1.30;;;17.40;99.90;;;;;;4954498;28;20239;-68
2023/08/31 18:03:48;;;;;;;4.03;1.37;;;17.30;99.90;;;;;;4954376;29;20243;-67
2023/08/31 18:06:15;;;;;;;5.03;1.80;;;17.30;99.90;;;;;;4954541;28;20295;-68
2023/08/31 18:08:45;;;;;;;2.93;1.20;;;17.30;99.90;;;;;;4954530;28;20243;-69
2023/08/31 18:11:12;;;;;;;1.90;1.23;;;17.20;99.90;;;;;;4954622;29;20254;-73
2023/08/31 18:13:39;;;;;;;4.93;1.70;;;17.30;99.90;;;;;;4952196;29;20234;-68
2023/08/31 18:16:06;;;;;;;5.72;2.60;;;17.20;99.90;;;;;;4935043;29;20279;-70
2023/08/31 18:18:34;;;;;;;3.00;1.40;;;17.20;99.90;;;;;;4935232;29;20238;-70
2023/08/31 18:21:02;;;;;;;4.90;1.80;;;17.10;99.90;;;;;;4935502;29;20240;-67
2023/08/31 18:23:29;;;;;;;6.03;1.40;;;17.10;99.90;;;;;;4935603;29;20306;-68
2023/08/31 18:25:57;;;;;;;3.80;1.60;;;17.10;99.90;;;;;;4935085;29;20229;-67
2023/08/31 18:28:23;;;;;;;5.93;1.87;;;17.10;99.90;;;;;;4935064;29;20279;-68
2023/08/31 18:30:56;;;;;;;2.00;1.47;;;17.10;99.90;;;;;;4935043;29;20248;-67
2023/08/31 18:33:23;;;;;;;3.50;1.40;;;17.10;99.90;;;;;;4933600;29;20296;-67
2023/08/31 18:35:52;;;;;;;3.37;1.50;;;17.00;99.90;;;;;;4932772;29;20271;-67
2023/08/31 18:38:19;;;;;;;2.90;1.33;;;17.00;99.90;;;;;;4934744;29;20232;-67
2023/08/31 18:40:46;;;;;;;2.70;1.35;;;16.90;99.90;;;;;;4933875;29;20673;-68
2023/08/31 18:43:13;;;;;;;3.77;1.43;;;16.90;99.90;;;;;;4933485;29;20676;-68
2023/08/31 18:45:44;;;;;;;4.67;1.33;;;16.90;99.90;;;;;;4935168;29;20261;-69
2023/08/31 18:48:11;;;;;;;3.07;2.07;;;17.00;99.90;;;;;;4935448;29;20209;-71
2023/08/31 18:50:38;;;;;;;6.87;1.57;;;17.00;99.90;;;;;;4934931;29;20209;-69
2023/08/31 18:53:06;;;;;;;5.40;1.40;;;16.80;99.90;;;;;;4935073;29;20240;-67
2023/08/31 18:55:34;;;;;;;2.63;1.27;;;16.70;99.90;;;;;;4935177;29;20252;-70
2023/08/31 18:58:01;;;;;;;2.43;1.60;;;16.60;99.90;;;;;;4938709;29;20209;-68
2023/08/31 19:00:29;;;;;;;3.40;1.87;;;16.50;99.90;;;;;;4937179;29;20265;-70
